createdAt,value
2018-10-21T00:00:51.102Z,13.00
2018-10-21T00:03:20.360Z,12.40
2018-10-21T00:05:49.576Z,12.63
2018-10-21T00:08:18.906Z,12.37
2018-10-21T00:10:48.476Z,12.53
2018-10-21T00:13:18.383Z,12.20
2018-10-21T00:15:47.329Z,12.93
2018-10-21T00:18:16.541Z,12.87
2018-10-21T00:20:46.117Z,12.20
2018-10-21T00:23:16.071Z,12.27
2018-10-21T00:25:45.275Z,13.43
2018-10-21T00:28:14.878Z,11.93
2018-10-21T00:30:44.788Z,12.97
2018-10-21T00:33:13.974Z,13.43
2018-10-21T00:35:43.471Z,12.13
2018-10-21T00:38:12.465Z,12.60
2018-10-21T00:40:42.702Z,12.60
2018-10-21T00:43:12.790Z,13.30
2018-10-21T00:45:41.776Z,13.23
2018-10-21T00:48:10.827Z,12.90
2018-10-21T00:50:40.106Z,13.67
2018-10-21T00:53:09.613Z,12.53
2018-10-21T00:55:41.102Z,12.50
2018-10-21T00:58:11.089Z,12.60
2018-10-21T01:00:40.087Z,12.70
2018-10-21T01:03:09.153Z,13.50
2018-10-21T01:05:39.160Z,13.00
2018-10-21T01:08:09.358Z,12.60
2018-10-21T01:10:39.132Z,12.97
2018-10-21T01:13:08.259Z,13.00
2018-10-21T01:15:37.909Z,13.07
2018-10-21T01:18:07.999Z,13.40
2018-10-21T01:20:37.418Z,13.50
2018-10-21T01:23:06.411Z,12.83
2018-10-21T01:25:35.619Z,13.33
2018-10-21T01:28:05.796Z,13.17
2018-10-21T01:30:36.944Z,12.40
2018-10-21T01:33:06.939Z,14.20
2018-10-21T01:35:36.826Z,13.53
2018-10-21T01:38:06.468Z,12.90
2018-10-21T01:40:40.731Z,13.20
2018-10-21T01:43:10.918Z,13.07
2018-10-21T01:45:40.531Z,13.70
2018-10-21T01:48:11.149Z,12.83
2018-10-21T01:50:41.136Z,14.00
2018-10-21T01:53:12.866Z,13.10
2018-10-21T01:55:41.961Z,13.10
2018-10-21T01:58:11.779Z,13.47
2018-10-21T02:00:41.570Z,13.30
2018-10-21T02:03:10.636Z,13.47
2018-10-21T02:05:40.021Z,13.73
2018-10-21T02:08:09.080Z,13.53
2018-10-21T02:10:38.321Z,14.37
2018-10-21T02:13:07.995Z,12.90
2018-10-21T02:15:37.473Z,14.20
2018-10-21T02:18:06.836Z,13.50
2018-10-21T02:20:35.981Z,14.33
2018-10-21T02:23:05.189Z,12.80
2018-10-21T02:25:34.071Z,13.23
2018-10-21T02:28:03.097Z,13.97
2018-10-21T02:30:32.525Z,13.07
2018-10-21T02:33:03.129Z,13.13
2018-10-21T02:35:32.381Z,14.10
2018-10-21T02:38:01.594Z,14.20
2018-10-21T02:41:43.507Z,14.07
2018-10-21T02:44:20.689Z,14.13
2018-10-21T02:46:51.401Z,13.30
2018-10-21T02:49:21.959Z,13.87
2018-10-21T02:52:12.455Z,14.50
2018-10-21T02:54:44.194Z,14.47
2018-10-21T02:57:15.149Z,13.60
2018-10-21T02:59:44.618Z,14.03
2018-10-21T03:02:14.073Z,14.30
2018-10-21T03:04:42.980Z,13.47
2018-10-21T03:07:13.011Z,13.80
2018-10-21T03:09:43.176Z,14.50
2018-10-21T03:12:12.197Z,13.70
2018-10-21T03:14:42.108Z,14.03
2018-10-21T03:17:11.153Z,14.07
2018-10-21T03:19:42.153Z,14.00
2018-10-21T03:22:11.859Z,14.70
2018-10-21T03:24:41.007Z,13.90
2018-10-21T03:27:11.357Z,13.53
2018-10-21T03:29:40.861Z,13.47
2018-10-21T03:32:10.025Z,14.37
2018-10-21T03:34:39.149Z,15.03
2018-10-21T03:37:08.320Z,14.60
2018-10-21T03:39:37.512Z,14.60
2018-10-21T03:42:06.476Z,15.87
2018-10-21T03:44:36.271Z,14.50
2018-10-21T03:47:06.107Z,14.23
2018-10-21T03:49:35.281Z,14.80
2018-10-21T03:52:04.757Z,14.37
2018-10-21T03:54:33.903Z,14.20
2018-10-21T03:57:03.178Z,14.00
2018-10-21T03:59:32.940Z,14.37
2018-10-21T04:02:02.406Z,14.03
2018-10-21T04:04:32.295Z,15.20
2018-10-21T04:07:01.637Z,15.10
2018-10-21T04:09:30.764Z,14.80
2018-10-21T04:12:00.961Z,15.50
2018-10-21T04:14:30.096Z,14.20
2018-10-21T04:16:59.949Z,14.00
2018-10-21T04:19:29.623Z,15.00
2018-10-21T04:22:00.027Z,13.83
2018-10-21T04:24:29.420Z,14.23
2018-10-21T04:26:59.683Z,14.60
2018-10-21T04:29:28.947Z,14.53
2018-10-21T04:31:58.687Z,14.17
2018-10-21T04:34:27.707Z,14.13
2018-10-21T04:37:04.676Z,14.37
2018-10-21T04:39:44.787Z,15.17
2018-10-21T04:42:14.790Z,15.40
2018-10-21T04:44:44.054Z,14.43
2018-10-21T04:47:13.121Z,14.07
2018-10-21T04:49:42.276Z,14.67
2018-10-21T04:52:11.823Z,13.80
2018-10-21T04:54:42.445Z,14.90
2018-10-21T04:57:12.300Z,15.17
2018-10-21T04:59:41.320Z,15.30
2018-10-21T05:02:11.060Z,14.10
2018-10-21T05:04:40.127Z,14.97
2018-10-21T05:07:10.520Z,15.80
2018-10-21T05:09:40.227Z,14.03
2018-10-21T05:12:09.246Z,16.27
2018-10-21T05:14:38.272Z,15.20
2018-10-21T05:17:07.167Z,15.60
2018-10-21T05:19:37.048Z,15.63
2018-10-21T05:22:06.485Z,14.20
2018-10-21T05:24:36.771Z,15.37
2018-10-21T05:27:07.103Z,15.87
2018-10-21T05:29:36.939Z,15.40
2018-10-21T05:32:06.147Z,15.37
2018-10-21T05:34:36.857Z,15.70
2018-10-21T05:37:06.589Z,15.77
2018-10-21T05:39:36.710Z,15.23
2018-10-21T05:42:06.274Z,16.80
2018-10-21T05:44:35.817Z,15.67
2018-10-21T05:47:05.164Z,15.70
2018-10-21T05:49:34.622Z,15.23
2018-10-21T05:52:04.378Z,15.63
2018-10-21T05:54:37.459Z,16.27
2018-10-21T05:57:06.859Z,15.50
2018-10-21T05:59:36.268Z,15.50
2018-10-21T06:02:06.813Z,15.70
2018-10-21T06:04:36.426Z,15.90
2018-10-21T06:07:06.841Z,15.77
2018-10-21T06:09:37.026Z,16.83
2018-10-21T06:12:06.594Z,16.60
2018-10-21T06:14:36.278Z,16.00
2018-10-21T06:17:08.990Z,16.60
2018-10-21T06:19:40.445Z,16.60
2018-10-21T06:22:10.584Z,15.20
2018-10-21T06:24:40.137Z,16.90
2018-10-21T06:27:09.336Z,16.30
2018-10-21T06:29:39.351Z,16.20
2018-10-21T06:32:09.080Z,16.60
2018-10-21T06:34:39.257Z,17.00
2018-10-21T06:37:09.681Z,16.27
2018-10-21T06:39:38.990Z,16.50
2018-10-21T06:42:09.017Z,16.33
2018-10-21T06:44:39.377Z,17.30
2018-10-21T06:47:08.596Z,16.77
2018-10-21T06:49:38.328Z,17.00
2018-10-21T06:52:13.847Z,17.17
2018-10-21T06:54:42.959Z,17.13
2018-10-21T06:57:12.273Z,15.97
2018-10-21T06:59:41.904Z,17.50
2018-10-21T07:02:10.941Z,18.10
2018-10-21T07:04:40.363Z,16.63
2018-10-21T07:07:11.065Z,17.50
2018-10-21T07:09:40.690Z,17.93
2018-10-21T07:12:10.243Z,17.50
2018-10-21T07:14:39.782Z,19.07
2018-10-21T07:17:08.693Z,17.83
2018-10-21T07:19:38.541Z,18.47
2018-10-21T07:22:08.687Z,17.90
2018-10-21T07:24:37.973Z,18.53
2018-10-21T07:27:07.570Z,17.90
2018-10-21T07:29:36.932Z,18.33
2018-10-21T07:32:06.972Z,18.73
2018-10-21T07:34:36.456Z,17.83
2018-10-21T07:37:05.558Z,18.80
2018-10-21T07:39:34.599Z,18.87
2018-10-21T07:42:03.759Z,18.13
2018-10-21T07:44:33.062Z,20.20
2018-10-21T07:47:02.200Z,19.67
2018-10-21T07:49:31.841Z,18.43
2018-10-21T07:52:01.058Z,20.37
2018-10-21T07:54:30.551Z,19.50
2018-10-21T07:57:00.656Z,19.50
2018-10-21T07:59:29.712Z,19.90
2018-10-21T08:01:58.893Z,20.30
2018-10-21T08:04:28.326Z,21.60
2018-10-21T08:07:08.626Z,20.13
2018-10-21T08:09:38.560Z,19.83
2018-10-21T08:12:08.144Z,20.70
2018-10-21T08:14:37.390Z,20.90
2018-10-21T08:17:07.329Z,20.33
2018-10-21T08:19:36.921Z,21.67
2018-10-21T08:22:06.732Z,21.40
2018-10-21T08:24:36.550Z,19.80
2018-10-21T08:27:05.737Z,21.90
2018-10-21T08:29:35.473Z,19.63
2018-10-21T08:32:05.283Z,21.33
2018-10-21T08:34:35.575Z,20.60
2018-10-21T08:37:05.030Z,20.00
2018-10-21T08:39:34.113Z,21.47
2018-10-21T08:42:04.064Z,19.73
2018-10-21T08:44:33.410Z,20.63
2018-10-21T08:47:02.479Z,20.17
2018-10-21T08:49:32.299Z,18.73
2018-10-21T08:52:01.964Z,19.50
2018-10-21T08:54:31.883Z,19.63
2018-10-21T08:57:04.687Z,20.47
2018-10-21T08:59:34.307Z,18.07
2018-10-21T09:02:03.529Z,18.07
2018-10-21T09:04:32.520Z,18.03
2018-10-21T09:07:02.679Z,18.60
2018-10-21T09:09:32.411Z,16.93
2018-10-21T09:12:04.179Z,16.90
2018-10-21T09:14:33.185Z,18.43
2018-10-21T09:17:02.799Z,17.00
2018-10-21T09:19:33.198Z,19.10
2018-10-21T09:22:03.550Z,23.63
2018-10-21T09:24:34.042Z,17.10
2018-10-21T09:27:03.433Z,15.17
2018-10-21T09:29:33.215Z,16.03
2018-10-21T09:32:03.499Z,14.93
2018-10-21T09:34:32.509Z,16.53
2018-10-21T09:37:01.895Z,16.00
2018-10-21T09:42:08.945Z,15.17
2018-10-21T09:44:39.102Z,14.17
2018-10-21T09:47:09.151Z,14.50
2018-10-21T09:49:38.698Z,14.73
2018-10-21T09:52:08.726Z,17.57
2018-10-21T09:54:38.220Z,13.10
2018-10-21T09:57:09.284Z,23.23
2018-10-21T09:59:39.700Z,13.20
2018-10-21T10:02:14.680Z,12.63
2018-10-21T10:04:44.180Z,11.83
2018-10-21T10:07:14.086Z,10.80
2018-10-21T10:09:44.133Z,11.77
2018-10-21T10:12:13.812Z,11.70
2018-10-21T10:14:44.830Z,11.73
2018-10-21T10:17:14.424Z,11.10
2018-10-21T10:19:44.146Z,11.50
2018-10-21T10:22:13.636Z,11.00
2018-10-21T10:24:45.245Z,10.90
2018-10-21T10:27:14.231Z,12.43
2018-10-21T10:29:43.523Z,11.83
2018-10-21T10:32:13.773Z,10.83
2018-10-21T10:34:44.159Z,11.90
2018-10-21T10:37:14.679Z,10.67
2018-10-21T10:39:43.739Z,12.40
2018-10-21T10:42:13.149Z,10.97
2018-10-21T10:44:42.880Z,10.70
2018-10-21T10:47:16.001Z,10.47
2018-10-21T10:49:45.915Z,10.53
2018-10-21T10:52:16.304Z,10.77
2018-10-21T10:54:46.682Z,10.00
2018-10-21T10:57:16.083Z,10.33
2018-10-21T10:59:47.171Z,11.30
2018-10-21T11:02:17.737Z,15.87
2018-10-21T11:04:47.383Z,13.23
2018-10-21T11:07:16.834Z,9.77
2018-10-21T11:09:46.023Z,11.13
2018-10-21T11:12:17.636Z,9.90
2018-10-21T11:14:49.293Z,10.40
2018-10-21T11:17:21.097Z,10.77
2018-10-21T11:19:50.640Z,9.60
2018-10-21T11:22:21.029Z,9.90
2018-10-21T11:24:50.992Z,9.40
2018-10-21T11:27:20.997Z,9.63
2018-10-21T11:29:50.198Z,9.33
2018-10-21T11:32:20.761Z,10.13
2018-10-21T11:34:51.326Z,9.70
2018-10-21T11:37:20.703Z,10.10
2018-10-21T11:39:49.869Z,9.83
2018-10-21T11:42:19.358Z,16.20
2018-10-21T11:44:49.055Z,9.80
2018-10-21T11:47:18.395Z,9.73
2018-10-21T11:49:47.896Z,9.03
2018-10-21T11:52:17.744Z,10.60
2018-10-21T11:54:46.736Z,8.90
2018-10-21T11:57:15.659Z,8.90
2018-10-21T11:59:46.059Z,9.70
2018-10-21T12:02:16.573Z,9.47
2018-10-21T12:04:46.159Z,10.10
2018-10-21T12:07:15.929Z,9.67
2018-10-21T12:09:45.512Z,10.00
2018-10-21T12:12:14.568Z,9.40
2018-10-21T12:14:44.741Z,9.20
2018-10-21T12:17:14.768Z,10.10
2018-10-21T12:19:44.288Z,9.90
2018-10-21T12:22:15.099Z,8.77
2018-10-21T12:24:45.378Z,9.00
2018-10-21T12:27:15.783Z,9.50
2018-10-21T12:29:45.433Z,9.17
2018-10-21T12:32:14.694Z,8.93
2018-10-21T12:34:45.284Z,9.23
2018-10-21T12:37:14.322Z,8.70
2018-10-21T12:39:43.777Z,9.07
2018-10-21T12:42:13.326Z,9.40
2018-10-21T12:44:49.570Z,9.40
2018-10-21T12:47:18.723Z,10.23
2018-10-21T12:49:49.133Z,10.37
2018-10-21T12:52:18.260Z,9.60
2018-10-21T12:54:49.082Z,9.17
2018-10-21T12:57:18.533Z,9.40
2018-10-21T12:59:48.050Z,9.53
2018-10-21T13:02:18.501Z,9.57
2018-10-21T13:04:50.450Z,9.33
2018-10-21T13:07:20.420Z,9.10
2018-10-21T13:09:50.481Z,10.47
2018-10-21T13:12:19.618Z,9.30
2018-10-21T13:14:49.054Z,8.70
2018-10-21T13:17:19.213Z,8.67
2018-10-21T13:19:48.988Z,9.10
2018-10-21T13:22:18.593Z,9.07
2018-10-21T13:24:49.479Z,8.73
2018-10-21T13:27:19.167Z,9.50
2018-10-21T13:29:48.960Z,9.40
2018-10-21T13:32:17.976Z,9.10
2018-10-21T13:34:47.680Z,9.27
2018-10-21T13:37:17.619Z,9.33
2018-10-21T13:39:47.350Z,8.90
2018-10-21T13:42:16.567Z,9.20
2018-10-21T13:44:45.567Z,8.90
2018-10-21T13:47:14.343Z,9.33
2018-10-21T13:49:43.389Z,9.23
2018-10-21T13:52:13.128Z,9.20
2018-10-21T13:54:42.152Z,9.40
2018-10-21T13:57:11.394Z,9.53
2018-10-21T13:59:40.207Z,9.40
2018-10-21T14:02:09.212Z,9.17
2018-10-21T14:04:38.532Z,9.47
2018-10-21T14:07:07.442Z,9.53
2018-10-21T14:09:36.213Z,9.63
2018-10-21T14:12:05.102Z,9.50
2018-10-21T14:14:34.293Z,9.50
2018-10-21T14:17:03.129Z,9.50
2018-10-21T14:19:31.944Z,9.80
2018-10-21T14:22:00.706Z,9.70
2018-10-21T14:24:29.726Z,10.23
2018-10-21T14:26:58.829Z,9.50
2018-10-21T14:29:27.678Z,9.90
2018-10-21T14:31:57.706Z,9.80
2018-10-21T14:34:28.210Z,10.43
2018-10-21T14:36:57.437Z,9.37
2018-10-21T14:39:26.353Z,9.13
2018-10-21T14:41:55.394Z,9.37
2018-10-21T14:44:24.232Z,9.70
2018-10-21T14:46:52.959Z,10.10
2018-10-21T14:49:22.066Z,10.40
2018-10-21T14:51:50.868Z,9.13
2018-10-21T14:54:19.794Z,9.93
2018-10-21T14:56:48.505Z,9.20
2018-10-21T14:59:17.728Z,9.07
2018-10-21T15:01:46.847Z,9.30
2018-10-21T15:04:16.530Z,9.70
2018-10-21T15:06:46.410Z,9.77
2018-10-21T15:09:15.980Z,9.87
2018-10-21T15:11:45.235Z,9.53
2018-10-21T15:14:14.726Z,9.30
2018-10-21T15:16:44.559Z,9.73
2018-10-21T15:19:13.588Z,9.70
2018-10-21T15:21:43.799Z,9.40
2018-10-21T15:24:12.682Z,9.50
2018-10-21T15:26:42.721Z,10.00
2018-10-21T15:29:12.768Z,9.53
2018-10-21T15:31:41.515Z,12.77
2018-10-21T15:34:10.873Z,12.07
2018-10-21T15:36:39.559Z,10.40
2018-10-21T15:39:10.409Z,10.73
2018-10-21T15:41:40.285Z,10.30
2018-10-21T15:44:09.845Z,10.73
2018-10-21T15:46:38.534Z,12.10
2018-10-21T15:49:07.643Z,10.43
2018-10-21T15:51:36.795Z,10.93
2018-10-21T15:54:12.242Z,11.50
2018-10-21T15:56:43.248Z,9.47
2018-10-21T15:59:13.573Z,10.10
2018-10-21T16:01:43.910Z,10.73
2018-10-21T16:04:14.066Z,10.30
2018-10-21T16:06:44.001Z,10.50
2018-10-21T16:09:13.746Z,10.00
2018-10-21T16:11:44.037Z,10.40
2018-10-21T16:14:14.570Z,10.03
2018-10-21T16:16:46.012Z,9.97
2018-10-21T16:19:15.145Z,9.87
2018-10-21T16:21:44.215Z,9.87
2018-10-21T16:24:14.597Z,10.50
2018-10-21T16:26:43.758Z,10.10
2018-10-21T16:29:12.895Z,9.70
2018-10-21T16:31:41.974Z,10.20
2018-10-21T16:34:10.964Z,10.30
2018-10-21T16:36:40.166Z,11.03
2018-10-21T16:39:10.465Z,10.93
2018-10-21T16:41:39.317Z,10.97
2018-10-21T16:44:08.033Z,10.53
2018-10-21T16:46:37.236Z,10.90
2018-10-21T16:49:06.094Z,11.00
2018-10-21T16:51:35.007Z,12.10
2018-10-21T16:54:04.213Z,11.43
2018-10-21T16:56:33.577Z,11.87
2018-10-21T16:59:02.621Z,11.40
2018-10-21T17:01:31.865Z,10.63
2018-10-21T17:04:03.096Z,11.80
2018-10-21T17:06:33.312Z,12.00
2018-10-21T17:09:02.473Z,11.83
2018-10-21T17:11:31.426Z,11.90
2018-10-21T17:14:00.726Z,11.70
2018-10-21T17:16:29.794Z,12.90
2018-10-21T17:18:59.119Z,14.70
2018-10-21T17:21:28.039Z,14.87
2018-10-21T17:23:57.092Z,13.60
2018-10-21T17:26:26.604Z,13.57
2018-10-21T17:28:55.996Z,13.20
2018-10-21T17:31:24.724Z,12.63
2018-10-21T17:33:54.256Z,13.63
2018-10-21T17:36:23.021Z,13.50
2018-10-21T17:38:52.796Z,14.60
2018-10-21T17:41:21.560Z,13.50
2018-10-21T17:43:50.370Z,13.30
2018-10-21T17:46:19.641Z,12.93
2018-10-21T17:48:50.544Z,14.10
2018-10-21T17:51:21.099Z,12.83
2018-10-21T17:53:50.969Z,12.90
2018-10-21T17:56:19.964Z,12.30
2018-10-21T17:58:49.776Z,12.13
2018-10-21T18:01:19.610Z,12.43
2018-10-21T18:03:50.129Z,12.40
2018-10-21T18:06:20.254Z,12.10
2018-10-21T18:08:49.832Z,12.10
2018-10-21T18:11:18.745Z,12.30
2018-10-21T18:13:48.158Z,12.10
2018-10-21T18:16:17.000Z,12.97
2018-10-21T18:18:45.773Z,11.70
2018-10-21T18:21:14.634Z,12.63
2018-10-21T18:23:43.815Z,12.00
2018-10-21T18:26:12.686Z,12.33
2018-10-21T18:28:41.802Z,12.60
2018-10-21T18:31:10.991Z,12.20
2018-10-21T18:33:39.726Z,12.07
2018-10-21T18:36:08.527Z,13.13
2018-10-21T18:38:37.437Z,12.20
2018-10-21T18:41:06.995Z,13.30
2018-10-21T18:43:36.183Z,13.40
2018-10-21T18:46:05.155Z,12.47
2018-10-21T18:48:34.230Z,12.80
2018-10-21T18:51:03.826Z,13.23
2018-10-21T18:53:32.665Z,12.50
2018-10-21T18:56:01.527Z,13.47
2018-10-21T18:58:30.872Z,12.90
2018-10-21T19:01:00.039Z,13.20
2018-10-21T19:03:29.502Z,13.23
2018-10-21T19:05:58.327Z,13.13
2018-10-21T19:08:27.234Z,13.00
2018-10-21T19:10:56.052Z,13.10
2018-10-21T19:13:25.289Z,12.00
2018-10-21T19:15:54.335Z,13.50
2018-10-21T19:18:23.971Z,12.87
2018-10-21T19:20:52.789Z,12.70
2018-10-21T19:23:21.706Z,13.00
2018-10-21T19:25:50.593Z,12.57
2018-10-21T19:28:19.597Z,11.63
2018-10-21T19:30:48.497Z,11.93
2018-10-21T19:33:18.592Z,12.47
2018-10-21T19:35:47.406Z,12.60
2018-10-21T19:38:17.122Z,12.70
2018-10-21T19:40:47.112Z,12.97
2018-10-21T19:43:16.930Z,11.93
2018-10-21T19:45:45.893Z,12.57
2018-10-21T19:48:16.471Z,12.60
2018-10-21T19:50:47.690Z,12.80
2018-10-21T19:53:17.890Z,13.23
2018-10-21T19:55:47.244Z,12.93
2018-10-21T19:58:16.873Z,12.50
2018-10-21T20:00:47.847Z,12.50
2018-10-21T20:03:19.044Z,12.40
2018-10-21T20:05:49.931Z,12.20
2018-10-21T20:08:19.451Z,13.17
2018-10-21T20:10:48.586Z,12.93
2018-10-21T20:13:18.629Z,12.33
2018-10-21T20:15:47.689Z,14.17
2018-10-21T20:18:18.108Z,12.10
2018-10-21T20:20:48.403Z,12.53
2018-10-21T20:23:18.270Z,12.90
2018-10-21T20:25:48.159Z,12.20
2018-10-21T20:28:17.004Z,12.10
2018-10-21T20:30:45.748Z,13.03
2018-10-21T20:33:14.967Z,12.67
2018-10-21T20:35:45.302Z,12.27
2018-10-21T20:38:15.234Z,12.20
2018-10-21T20:40:44.582Z,12.80
2018-10-21T20:43:13.254Z,13.07
2018-10-21T20:45:42.027Z,13.03
2018-10-21T20:48:10.853Z,12.20
2018-10-21T20:50:39.900Z,12.10
2018-10-21T20:53:08.674Z,13.30
2018-10-21T20:55:37.480Z,12.27
2018-10-21T20:58:06.419Z,11.87
2018-10-21T21:00:35.189Z,12.90
2018-10-21T21:03:03.907Z,12.10
2018-10-21T21:05:32.659Z,11.53
2018-10-21T21:08:01.364Z,12.50
2018-10-21T21:10:30.155Z,12.77
2018-10-21T21:12:58.882Z,12.17
2018-10-21T21:15:27.587Z,12.20
2018-10-21T21:17:56.678Z,12.17
2018-10-21T21:20:25.394Z,12.37
2018-10-21T21:22:54.308Z,12.50
2018-10-21T21:25:23.321Z,12.90
2018-10-21T21:27:52.057Z,13.07
2018-10-21T21:30:20.795Z,12.90
2018-10-21T21:32:49.471Z,12.80
2018-10-21T21:35:18.491Z,11.73
2018-10-21T21:37:47.223Z,12.40
2018-10-21T21:40:16.353Z,12.77
2018-10-21T21:42:45.342Z,12.20
2018-10-21T21:45:15.499Z,12.77
2018-10-21T21:47:45.000Z,13.63
2018-10-21T21:50:16.587Z,13.67
2018-10-21T21:52:45.442Z,12.43
2018-10-21T21:55:15.384Z,13.30
2018-10-21T21:57:44.218Z,13.83
2018-10-21T22:00:14.250Z,13.13
2018-10-21T22:02:43.404Z,12.67
2018-10-21T22:05:13.139Z,13.10
2018-10-21T22:07:42.957Z,13.00
2018-10-21T22:10:14.007Z,12.93
2018-10-21T22:12:43.975Z,21.33
2018-10-21T22:15:13.241Z,14.70
2018-10-21T22:17:42.694Z,12.57
2018-10-21T22:20:13.562Z,12.40
2018-10-21T22:22:42.992Z,12.43
2018-10-21T22:25:11.776Z,13.47
2018-10-21T22:27:40.589Z,12.93
2018-10-21T22:30:10.840Z,12.67
2018-10-21T22:32:39.635Z,12.90
2018-10-21T22:35:09.676Z,13.30
2018-10-21T22:37:39.129Z,12.43
2018-10-21T22:40:07.972Z,12.83
2018-10-21T22:42:37.009Z,11.97
2018-10-21T22:45:07.400Z,12.50
2018-10-21T22:47:36.215Z,13.30
2018-10-21T22:50:05.461Z,12.53
2018-10-21T22:52:34.431Z,12.10
2018-10-21T22:55:03.212Z,12.70
2018-10-21T22:57:32.526Z,13.20
2018-10-21T23:00:01.277Z,12.03
2018-10-21T23:02:30.041Z,11.53
2018-10-21T23:04:58.813Z,12.30
2018-10-21T23:07:27.572Z,12.10
2018-10-21T23:09:56.483Z,12.53
2018-10-21T23:12:25.463Z,12.33
2018-10-21T23:14:54.720Z,12.50
2018-10-21T23:17:23.504Z,13.30
2018-10-21T23:19:52.406Z,12.30
2018-10-21T23:22:21.644Z,13.03
2018-10-21T23:27:28.500Z,12.10
2018-10-21T23:29:58.537Z,12.47
2018-10-21T23:32:27.587Z,12.57
2018-10-21T23:34:57.254Z,12.67
2018-10-21T23:37:26.556Z,12.50
2018-10-21T23:39:55.849Z,12.20
2018-10-21T23:42:24.849Z,11.80
2018-10-21T23:44:53.842Z,11.73
2018-10-21T23:47:22.716Z,13.10
2018-10-21T23:49:51.828Z,12.03
2018-10-21T23:52:20.843Z,12.23
2018-10-21T23:54:49.713Z,11.47
2018-10-21T23:57:18.831Z,12.17
2018-10-21T23:59:47.666Z,12.60
